Terminal Aerodrome Forecast
Issued by NWS Denver/Boulder, CO

Home | Current Version | Previous Version | Text Only | Print | Product List | Glossary On
Versions: 1 2 3 4 5 6 7 8 9 10 11 12 13 14 15 16 17 18 19 20 21 22 23 24 25 26 27 28 29 30 31 32 33 34 35 36 37 38 39 40 41 42 43 44 45 46 47 48 49 50
000
FTUS45 KBOU 251427 AAE
TAFDEN
TAF AMD
KDEN 251427Z 2514/2618 16008KT P6SM FEW120 SCT200
     FM251530 06007KT P6SM FEW120 BKN220
     FM251800 30012KT P6SM FEW090 SCT140 BKN200
     FM252000 30015G22KT P6SM VCTS SCT070CB BKN120
      TEMPO 2520/2524 VRB25G40KT -TSRA BKN070CB
     FM260000 34014KT P6SM VCTS SCT060CB BKN100 PROB30 2600/2603
      -SHRA BKN060
     FM260300 04008KT P6SM VCSH SCT060 BKN080
     FM260600 18007KT P6SM SCT060 BKN080
     FM261200 23006KT P6SM SCT030 BKN080
      TEMPO 2612/2615 BKN030=

USA.gov is the U.S. government's official web portal to all federal, state and local government web resources and services.